Hartford, Connecticut
Traffic Map
Current Weather Conditions
Hartford, Connecticut
Broken Clouds
Broken Clouds
76°
Feels Like: 76°
Wind Chill: 76° Ceiling: 5000
Heat Index: 76° Visibility: 10mi
Dew Point: 63° Wind: 13mph
Humidity: 64% Direction: 300° (WNW)
Pressure: 29.79in Gusts: 22mph
Raw Report DataKHFD 030653Z AUTO 30011G19KT 10SM BKN050 24/17 A2979 RMK AO2 SLP089 T02440172
Traffic Incident Summary
Active as of:
Severity:
Category:
InformationThere was an issue retrieving the traffic information for this location. Please try a different location or try again shortly.
Advertisements
Track Severe Weather on mobile